createdAt,value
2019-03-11T00:00:53.831Z,77.81
2019-03-11T00:01:54.426Z,78.21
2019-03-11T00:02:12.032Z,78.21
2019-03-11T00:03:12.687Z,78.24
2019-03-11T00:04:14.134Z,77.78
2019-03-11T00:05:13.712Z,77.62
2019-03-11T00:06:17.878Z,77.55
2019-03-11T00:07:14.881Z,77.65
2019-03-11T00:08:16.803Z,77.58
2019-03-11T00:09:16.980Z,77.43
2019-03-11T00:10:17.365Z,77.77
2019-03-11T00:11:17.453Z,77.77
2019-03-11T00:12:17.512Z,77.96
2019-03-11T00:13:18.087Z,78.10
2019-03-11T00:14:19.073Z,78.31
2019-03-11T00:15:19.817Z,77.99
2019-03-11T00:16:20.536Z,78.26
2019-03-11T00:17:20.772Z,78.56
2019-03-11T00:18:21.342Z,78.65
2019-03-11T00:19:22.141Z,78.70
2019-03-11T00:20:25.052Z,78.39
2019-03-11T00:21:21.811Z,78.64
2019-03-11T00:22:23.222Z,78.38
2019-03-11T00:23:25.604Z,78.42
2019-03-11T00:24:23.249Z,78.31
2019-03-11T00:25:26.895Z,78.36
2019-03-11T00:26:23.976Z,78.39
2019-03-11T00:27:25.362Z,77.99
2019-03-11T00:28:25.897Z,77.96
2019-03-11T00:29:26.785Z,77.93
2019-03-11T00:30:26.479Z,77.98
2019-03-11T00:31:27.562Z,77.80
2019-03-11T00:32:28.280Z,77.62
2019-03-11T00:33:27.920Z,77.46
2019-03-11T00:34:29.485Z,77.32
2019-03-11T00:35:30.092Z,77.37
2019-03-11T00:36:30.587Z,77.43
2019-03-11T00:37:31.337Z,77.75
2019-03-11T00:38:31.418Z,77.48
2019-03-11T00:39:31.445Z,77.68
2019-03-11T00:40:31.850Z,77.17
2019-03-11T00:41:32.277Z,77.38
2019-03-11T00:42:32.832Z,77.37
2019-03-11T00:43:33.056Z,77.45
2019-03-11T00:44:34.000Z,77.26
2019-03-11T00:45:34.559Z,76.96
2019-03-11T00:46:35.267Z,76.73
2019-03-11T00:47:36.179Z,76.67
2019-03-11T00:48:36.562Z,76.76
2019-03-11T00:49:36.902Z,76.48
2019-03-11T00:50:37.483Z,76.30
2019-03-11T00:51:38.079Z,76.20
2019-03-11T00:52:38.212Z,76.17
2019-03-11T00:53:38.054Z,75.91
2019-03-11T00:53:49.588Z,76.10
2019-03-11T00:54:50.672Z,76.08
2019-03-11T00:55:50.806Z,76.36
2019-03-11T00:56:51.305Z,76.09
2019-03-11T00:57:52.008Z,76.51
2019-03-11T00:58:52.245Z,76.39
2019-03-11T00:59:52.729Z,76.08
2019-03-11T01:00:53.643Z,76.02
2019-03-11T01:01:54.610Z,75.78
2019-03-11T01:02:55.461Z,75.98
2019-03-11T01:03:55.976Z,75.91
2019-03-11T01:04:56.331Z,76.02
2019-03-11T01:05:57.791Z,75.98
2019-03-11T01:06:57.692Z,76.39
2019-03-11T01:07:57.909Z,76.89
2019-03-11T01:08:58.259Z,76.87
2019-03-11T01:09:58.548Z,77.23
2019-03-11T01:10:59.281Z,77.32
2019-03-11T01:11:59.376Z,77.64
2019-03-11T01:12:59.894Z,77.74
2019-03-11T01:14:00.300Z,77.91
2019-03-11T01:15:00.624Z,78.14
2019-03-11T01:16:01.525Z,78.27
2019-03-11T01:17:02.085Z,78.60
2019-03-11T01:18:02.455Z,79.14
2019-03-11T01:19:01.573Z,79.45
2019-03-11T01:20:02.785Z,79.60
2019-03-11T01:21:03.717Z,80.04
2019-03-11T01:22:03.854Z,80.07
2019-03-11T01:23:04.054Z,80.50
2019-03-11T01:24:04.424Z,80.68
2019-03-11T01:25:05.219Z,81.00
2019-03-11T01:26:04.189Z,80.95
2019-03-11T01:27:05.311Z,81.13
2019-03-11T01:28:05.811Z,81.15
2019-03-11T01:29:05.978Z,81.10
2019-03-11T01:30:06.230Z,81.26
2019-03-11T01:31:06.502Z,81.68
2019-03-11T01:32:06.720Z,81.89
2019-03-11T01:33:06.827Z,81.75
2019-03-11T01:34:06.941Z,81.78
2019-03-11T01:35:07.189Z,82.05
2019-03-11T01:36:07.818Z,82.13
2019-03-11T01:37:08.310Z,82.16
2019-03-11T01:38:08.580Z,81.83
2019-03-11T01:38:18.622Z,81.95
2019-03-11T01:39:20.055Z,81.97
2019-03-11T01:40:20.108Z,82.11
2019-03-11T01:41:20.466Z,81.83
2019-03-11T01:42:20.699Z,81.86
2019-03-11T01:43:21.030Z,81.58
2019-03-11T01:44:21.386Z,81.56
2019-03-11T01:45:21.879Z,81.47
2019-03-11T01:46:22.221Z,81.72
2019-03-11T01:47:22.881Z,81.46
2019-03-11T01:48:23.339Z,81.26
2019-03-11T01:49:24.121Z,81.58
2019-03-11T01:50:23.074Z,81.51
2019-03-11T01:51:24.980Z,81.99
2019-03-11T01:52:25.051Z,82.04
2019-03-11T01:53:25.464Z,82.04
2019-03-11T01:54:25.851Z,82.09
2019-03-11T01:55:26.455Z,82.37
2019-03-11T01:56:26.687Z,82.07
2019-03-11T01:57:27.275Z,82.17
2019-03-11T01:58:27.341Z,82.22
2019-03-11T01:59:28.185Z,82.55
2019-03-11T02:00:28.741Z,82.59
2019-03-11T02:01:29.077Z,82.54
2019-03-11T02:02:29.485Z,82.69
2019-03-11T02:03:30.104Z,82.69
2019-03-11T02:04:30.639Z,82.58
2019-03-11T02:05:31.327Z,82.56
2019-03-11T02:06:31.597Z,82.92
2019-03-11T02:07:32.375Z,82.96
2019-03-11T02:08:32.787Z,83.05
2019-03-11T02:09:33.165Z,82.98
2019-03-11T02:10:33.188Z,82.76
2019-03-11T02:11:34.158Z,82.71
2019-03-11T02:12:35.142Z,83.28
2019-03-11T02:13:35.759Z,83.42
2019-03-11T02:14:35.067Z,83.63
2019-03-11T02:15:36.580Z,84.00
2019-03-11T02:16:37.500Z,84.72
2019-03-11T02:17:38.093Z,85.18
2019-03-11T02:18:38.611Z,85.84
2019-03-11T02:19:39.563Z,86.33
2019-03-11T02:20:40.207Z,86.32
2019-03-11T02:21:40.684Z,85.91
2019-03-11T02:22:40.677Z,86.48
2019-03-11T02:23:41.159Z,86.81
2019-03-11T02:23:49.697Z,87.31
2019-03-11T02:24:50.984Z,87.26
2019-03-11T02:25:51.356Z,87.86
2019-03-11T02:26:51.880Z,88.25
2019-03-11T02:27:52.371Z,90.01
2019-03-11T02:28:53.232Z,90.36
2019-03-11T02:29:53.902Z,90.93
2019-03-11T02:30:53.402Z,91.60
2019-03-11T02:31:54.037Z,92.16
2019-03-11T02:32:55.278Z,91.64
2019-03-11T02:33:56.232Z,92.72
2019-03-11T02:34:57.043Z,93.08
2019-03-11T02:35:57.344Z,94.03
2019-03-11T02:36:58.062Z,94.46
2019-03-11T02:37:58.504Z,94.88
2019-03-11T02:38:58.848Z,95.46
2019-03-11T02:39:58.672Z,95.51
2019-03-11T02:41:00.448Z,95.77
2019-03-11T02:42:01.292Z,96.45
2019-03-11T02:43:01.558Z,95.77
2019-03-11T02:44:01.765Z,95.89
2019-03-11T02:45:01.895Z,96.20
2019-03-11T02:46:01.833Z,96.92
2019-03-11T02:47:03.309Z,97.43
2019-03-11T02:48:03.799Z,97.48
2019-03-11T02:49:04.649Z,97.30
2019-03-11T02:50:04.948Z,97.71
2019-03-11T02:51:05.884Z,97.77
2019-03-11T02:52:06.536Z,97.89
2019-03-11T02:53:07.109Z,97.82
2019-03-11T02:54:07.780Z,98.35
2019-03-11T02:55:08.779Z,98.70
2019-03-11T02:56:08.614Z,98.32
2019-03-11T02:57:10.354Z,98.76
2019-03-11T02:58:10.693Z,99.03
2019-03-11T02:59:11.401Z,99.33
2019-03-11T03:00:12.401Z,99.57
2019-03-11T03:01:15.013Z,99.66
2019-03-11T03:02:12.227Z,99.51
2019-03-11T03:03:13.325Z,99.77
2019-03-11T03:04:13.382Z,99.94
2019-03-11T03:05:14.326Z,99.84
2019-03-11T03:06:14.863Z,100.08
2019-03-11T03:07:15.028Z,100.18
2019-03-11T03:08:15.894Z,100.07
2019-03-11T03:09:16.299Z,100.27
2019-03-11T03:10:16.825Z,100.20
2019-03-11T03:11:17.080Z,100.19
2019-03-11T03:11:27.626Z,99.92
2019-03-11T03:12:29.112Z,99.87
2019-03-11T03:13:29.813Z,98.95
2019-03-11T03:14:30.270Z,98.59
2019-03-11T03:15:30.396Z,98.99
2019-03-11T03:16:30.581Z,99.16
2019-03-11T03:17:31.484Z,99.19
2019-03-11T03:18:31.787Z,98.62
2019-03-11T03:19:32.285Z,98.55
2019-03-11T03:20:31.488Z,98.42
2019-03-11T03:21:32.671Z,98.48
2019-03-11T03:22:32.982Z,98.92
2019-03-11T03:23:33.715Z,99.14
2019-03-11T03:24:34.625Z,99.26
2019-03-11T03:25:35.517Z,99.39
2019-03-11T03:26:35.980Z,99.49
2019-03-11T03:27:36.478Z,99.70
2019-03-11T03:28:36.428Z,99.01
2019-03-11T03:29:36.933Z,98.74
2019-03-11T03:30:38.481Z,98.67
2019-03-11T03:31:38.766Z,97.78
2019-03-11T03:32:39.650Z,97.99
2019-03-11T03:33:40.097Z,98.34
2019-03-11T03:34:39.867Z,97.55
2019-03-11T03:35:40.821Z,97.23
2019-03-11T03:36:42.060Z,96.95
2019-03-11T03:37:42.154Z,97.12
2019-03-11T03:38:43.065Z,96.77
2019-03-11T03:39:43.892Z,96.60
2019-03-11T03:40:44.485Z,96.34
2019-03-11T03:41:44.069Z,96.79
2019-03-11T03:42:45.260Z,97.47
2019-03-11T03:43:44.178Z,97.04
2019-03-11T03:44:46.201Z,96.53
2019-03-11T03:45:46.964Z,96.36
2019-03-11T03:46:47.372Z,96.78
2019-03-11T03:47:47.601Z,97.39
2019-03-11T03:48:48.687Z,98.44
2019-03-11T03:49:47.605Z,99.01
2019-03-11T03:50:48.866Z,99.26
2019-03-11T03:51:49.278Z,99.15
2019-03-11T03:52:49.643Z,99.32
2019-03-11T03:53:50.119Z,99.59
2019-03-11T03:54:50.203Z,99.85
2019-03-11T03:55:50.324Z,100.07
2019-03-11T03:56:53.829Z,99.95
2019-03-11T03:57:50.911Z,99.94
2019-03-11T03:58:51.974Z,100.62
2019-03-11T03:59:52.680Z,101.25
2019-03-11T04:00:53.188Z,101.38
2019-03-11T04:01:01.757Z,101.43
2019-03-11T04:02:03.631Z,101.42
2019-03-11T04:03:04.196Z,99.83
2019-03-11T04:04:05.043Z,97.05
2019-03-11T04:05:05.492Z,97.49
2019-03-11T04:06:06.047Z,96.84
2019-03-11T04:07:06.884Z,95.68
2019-03-11T04:08:07.773Z,95.69
2019-03-11T04:09:07.172Z,95.62
2019-03-11T04:10:08.506Z,96.05
2019-03-11T04:11:08.702Z,95.23
2019-03-11T04:12:09.492Z,94.96
2019-03-11T04:13:10.185Z,94.73
2019-03-11T04:14:10.505Z,94.37
2019-03-11T04:15:10.971Z,94.88
2019-03-11T04:16:11.273Z,95.25
2019-03-11T04:17:11.518Z,95.40
2019-03-11T04:18:12.108Z,94.31
2019-03-11T04:19:12.522Z,94.25
2019-03-11T04:20:11.888Z,93.39
2019-03-11T04:21:13.087Z,93.04
2019-03-11T04:22:13.114Z,93.95
2019-03-11T04:23:13.709Z,93.72
2019-03-11T04:24:13.954Z,94.30
2019-03-11T04:25:14.158Z,94.18
2019-03-11T04:26:14.489Z,93.91
2019-03-11T04:27:15.043Z,93.68
2019-03-11T04:28:15.873Z,93.69
2019-03-11T04:29:16.425Z,93.90
2019-03-11T04:30:16.749Z,93.60
2019-03-11T04:31:17.072Z,94.47
2019-03-11T04:32:17.580Z,94.82
2019-03-11T04:33:17.979Z,95.57
2019-03-11T04:34:18.951Z,94.84
2019-03-11T04:35:19.476Z,95.05
2019-03-11T04:36:20.076Z,95.00
2019-03-11T04:37:20.393Z,94.81
2019-03-11T04:38:21.375Z,95.01
2019-03-11T04:39:21.592Z,95.05
2019-03-11T04:40:21.845Z,94.53
2019-03-11T04:41:22.739Z,94.51
2019-03-11T04:42:23.042Z,94.14
2019-03-11T04:43:23.454Z,94.72
2019-03-11T04:44:24.453Z,93.57
2019-03-11T04:45:24.435Z,92.91
2019-03-11T04:45:32.959Z,92.65
2019-03-11T04:46:34.212Z,92.60
2019-03-11T04:47:35.119Z,92.29
2019-03-11T04:48:35.396Z,92.35
2019-03-11T04:49:35.851Z,91.89
2019-03-11T04:50:36.728Z,91.32
2019-03-11T04:51:37.117Z,91.71
2019-03-11T04:52:37.424Z,91.58
2019-03-11T04:53:37.594Z,92.62
2019-03-11T04:54:37.647Z,92.68
2019-03-11T04:55:38.044Z,93.35
2019-03-11T04:56:38.433Z,92.34
2019-03-11T04:57:38.796Z,92.37
2019-03-11T04:58:39.303Z,93.27
2019-03-11T04:59:40.285Z,94.08
2019-03-11T05:00:40.986Z,93.36
2019-03-11T05:01:41.133Z,93.96
2019-03-11T05:02:41.653Z,94.61
2019-03-11T05:03:42.321Z,94.32
2019-03-11T05:04:42.368Z,93.83
2019-03-11T05:05:42.341Z,94.19
2019-03-11T05:06:42.752Z,94.86
2019-03-11T05:07:43.109Z,94.39
2019-03-11T05:08:43.666Z,95.48
2019-03-11T05:09:44.443Z,96.10
2019-03-11T05:10:45.347Z,96.49
2019-03-11T05:11:46.316Z,96.46
2019-03-11T05:12:46.429Z,96.59
2019-03-11T05:13:46.622Z,96.65
2019-03-11T05:14:46.887Z,96.83
2019-03-11T05:15:47.097Z,96.80
2019-03-11T05:16:47.537Z,96.86
2019-03-11T05:17:48.820Z,96.99
2019-03-11T05:18:47.867Z,97.42
2019-03-11T05:19:49.243Z,97.52
2019-03-11T05:20:49.671Z,97.49
2019-03-11T05:21:50.083Z,97.75
2019-03-11T05:22:50.631Z,97.49
2019-03-11T05:23:51.229Z,97.39
2019-03-11T05:24:52.046Z,96.70
2019-03-11T05:25:52.346Z,97.20
2019-03-11T05:26:52.802Z,97.48
2019-03-11T05:27:53.394Z,97.48
2019-03-11T05:28:53.977Z,97.69
2019-03-11T05:29:54.365Z,97.61
2019-03-11T05:30:02.894Z,97.59
2019-03-11T05:31:03.960Z,97.63
2019-03-11T05:32:04.431Z,97.39
2019-03-11T05:33:05.237Z,97.96
2019-03-11T05:34:05.797Z,97.73
2019-03-11T05:35:06.234Z,97.18
2019-03-11T05:36:06.926Z,97.05
2019-03-11T05:37:07.763Z,96.97
2019-03-11T05:38:08.754Z,97.25
2019-03-11T05:39:08.987Z,97.54
2019-03-11T05:40:09.892Z,97.94
2019-03-11T05:41:10.220Z,98.55
2019-03-11T05:42:10.730Z,98.00
2019-03-11T05:43:10.842Z,97.83
2019-03-11T05:44:11.732Z,97.72
2019-03-11T05:45:11.859Z,98.05
2019-03-11T05:46:12.447Z,98.33
2019-03-11T05:47:12.898Z,98.42
2019-03-11T05:48:13.227Z,98.53
2019-03-11T05:49:13.683Z,97.89
2019-03-11T05:50:14.177Z,97.96
2019-03-11T05:51:14.567Z,98.02
2019-03-11T05:52:14.868Z,98.12
2019-03-11T05:53:15.165Z,97.86
2019-03-11T05:54:16.004Z,97.70
2019-03-11T05:55:16.505Z,96.96
2019-03-11T05:56:17.251Z,96.62
2019-03-11T05:57:18.229Z,96.64
2019-03-11T05:58:17.942Z,96.91
2019-03-11T05:59:19.628Z,96.72
2019-03-11T06:00:19.632Z,96.13
2019-03-11T06:01:19.815Z,96.45
2019-03-11T06:02:19.863Z,96.73
2019-03-11T06:03:20.304Z,96.72
2019-03-11T06:04:20.684Z,95.59
2019-03-11T06:05:21.064Z,95.55
2019-03-11T06:06:21.672Z,95.14
2019-03-11T06:07:21.935Z,95.01
2019-03-11T06:08:22.589Z,95.52
2019-03-11T06:09:23.036Z,95.07
2019-03-11T06:10:23.443Z,94.66
2019-03-11T06:11:24.344Z,94.87
2019-03-11T06:12:24.358Z,95.08
2019-03-11T06:13:35.254Z,95.16
2019-03-11T06:14:24.739Z,95.48
2019-03-11T06:14:33.306Z,96.04
2019-03-11T06:15:34.289Z,96.04
2019-03-11T06:16:34.871Z,96.10
2019-03-11T06:17:35.653Z,96.15
2019-03-11T06:18:34.732Z,95.94
2019-03-11T06:19:36.348Z,96.40
2019-03-11T06:20:37.010Z,96.81
2019-03-11T06:21:37.918Z,96.64
2019-03-11T06:22:38.695Z,96.28
2019-03-11T06:23:39.120Z,96.22
2019-03-11T06:24:40.042Z,95.95
2019-03-11T06:25:40.410Z,96.43
2019-03-11T06:26:40.767Z,96.53
2019-03-11T06:27:40.861Z,96.83
2019-03-11T06:28:41.011Z,96.33
2019-03-11T06:29:41.787Z,96.32
2019-03-11T06:30:42.135Z,96.77
2019-03-11T06:31:42.540Z,96.28
2019-03-11T06:32:43.464Z,95.92
2019-03-11T06:33:43.844Z,95.46
2019-03-11T06:34:44.098Z,94.75
2019-03-11T06:35:44.189Z,95.08
2019-03-11T06:36:44.724Z,94.50
2019-03-11T06:37:44.967Z,94.69
2019-03-11T06:38:45.764Z,94.78
2019-03-11T06:39:46.510Z,95.32
2019-03-11T06:40:46.685Z,95.96
2019-03-11T06:41:47.360Z,95.92
2019-03-11T06:42:47.701Z,95.80
2019-03-11T06:43:47.949Z,95.42
2019-03-11T06:44:48.162Z,95.59
2019-03-11T06:45:48.916Z,95.58
2019-03-11T06:46:49.726Z,94.63
2019-03-11T06:47:50.225Z,94.87
2019-03-11T06:48:50.810Z,94.68
2019-03-11T06:49:50.369Z,94.77
2019-03-11T06:50:51.461Z,95.07
2019-03-11T06:51:52.194Z,95.54
2019-03-11T06:52:52.623Z,95.82
2019-03-11T06:53:52.855Z,96.14
2019-03-11T06:54:53.221Z,96.27
2019-03-11T06:55:53.747Z,96.86
2019-03-11T06:56:54.106Z,96.76
2019-03-11T06:57:02.676Z,97.01
2019-03-11T06:58:03.850Z,97.02
2019-03-11T06:59:03.901Z,97.12
2019-03-11T07:00:04.614Z,97.53
2019-03-11T07:01:05.087Z,97.53
2019-03-11T07:02:04.667Z,97.45
2019-03-11T07:03:06.601Z,97.88
2019-03-11T07:04:07.225Z,98.37
2019-03-11T07:05:18.758Z,98.44
2019-03-11T07:06:06.728Z,98.41
2019-03-11T07:07:07.995Z,98.45
2019-03-11T07:08:08.364Z,98.13
2019-03-11T07:09:08.743Z,98.51
2019-03-11T07:10:09.084Z,98.45
2019-03-11T07:11:09.636Z,96.94
2019-03-11T07:12:10.251Z,96.63
2019-03-11T07:13:10.973Z,96.01
2019-03-11T07:14:11.524Z,95.49
2019-03-11T07:15:11.818Z,95.78
2019-03-11T07:16:12.153Z,96.04
2019-03-11T07:17:12.957Z,96.39
2019-03-11T07:18:13.349Z,95.95
2019-03-11T07:19:13.662Z,96.47
2019-03-11T07:20:14.615Z,96.47
2019-03-11T07:21:15.517Z,95.89
2019-03-11T07:22:15.627Z,95.87
2019-03-11T07:23:15.682Z,95.01
2019-03-11T07:24:16.198Z,94.38
2019-03-11T07:25:16.540Z,94.31
2019-03-11T07:26:16.750Z,93.84
2019-03-11T07:27:17.271Z,93.40
2019-03-11T07:28:17.858Z,92.45
2019-03-11T07:29:18.551Z,92.50
2019-03-11T07:30:19.030Z,93.25
2019-03-11T07:31:19.464Z,93.41
2019-03-11T07:32:20.015Z,93.15
2019-03-11T07:33:20.494Z,92.02
2019-03-11T07:34:20.632Z,91.02
2019-03-11T07:35:21.107Z,90.24
2019-03-11T07:36:21.617Z,89.47
2019-03-11T07:37:22.479Z,88.62
2019-03-11T07:38:22.215Z,88.19
2019-03-11T07:39:23.055Z,88.08
2019-03-11T07:40:29.737Z,88.99
2019-03-11T07:41:24.030Z,88.67
2019-03-11T07:42:24.553Z,85.62
2019-03-11T07:43:25.097Z,84.93
2019-03-11T07:44:25.633Z,85.62
2019-03-11T07:45:26.038Z,83.78
2019-03-11T07:46:27.005Z,82.95
2019-03-11T07:48:54.392Z,84.18
2019-03-11T07:49:55.073Z,84.07
2019-03-11T07:50:55.141Z,82.67
2019-03-11T07:51:55.172Z,82.90
2019-03-11T07:52:55.514Z,82.84
2019-03-11T07:53:55.896Z,82.92
2019-03-11T07:54:55.782Z,83.70
2019-03-11T07:55:56.314Z,82.16
2019-03-11T07:56:56.391Z,83.04
2019-03-11T07:57:56.330Z,85.40
2019-03-11T07:58:56.349Z,85.28
2019-03-11T07:59:58.300Z,84.83
2019-03-11T08:00:57.439Z,83.31
2019-03-11T08:01:57.314Z,82.14
2019-03-11T08:02:58.246Z,80.91
2019-03-11T08:03:58.796Z,79.97
2019-03-11T08:04:58.999Z,80.49
2019-03-11T08:05:58.992Z,79.92
2019-03-11T08:06:58.994Z,79.82
2019-03-11T08:07:59.341Z,79.70
2019-03-11T08:08:59.921Z,78.41
2019-03-11T08:10:00.009Z,79.80
2019-03-11T08:11:00.628Z,80.23
2019-03-11T08:12:00.885Z,80.04
2019-03-11T08:13:01.727Z,80.21
2019-03-11T08:14:01.749Z,79.22
2019-03-11T08:15:01.938Z,79.34
2019-03-11T08:16:02.082Z,81.07
2019-03-11T08:17:03.027Z,80.34
2019-03-11T08:18:03.659Z,79.27
2019-03-11T08:19:04.054Z,80.20
2019-03-11T08:20:04.179Z,81.19
2019-03-11T08:21:04.182Z,80.49
2019-03-11T08:22:04.427Z,80.12
2019-03-11T08:23:04.520Z,79.09
2019-03-11T08:24:04.818Z,80.54
2019-03-11T08:25:05.349Z,81.40
2019-03-11T08:26:05.783Z,81.16
2019-03-11T08:27:06.727Z,81.89
2019-03-11T08:28:06.852Z,82.32
2019-03-11T08:29:06.943Z,82.01
2019-03-11T08:30:07.288Z,83.34
2019-03-11T08:31:07.662Z,83.94
2019-03-11T08:32:08.557Z,84.77
2019-03-11T08:33:08.830Z,85.80
2019-03-11T08:34:09.107Z,86.36
2019-03-11T08:35:11.945Z,87.52
2019-03-11T08:36:10.242Z,87.64
2019-03-11T08:37:10.250Z,88.56
2019-03-11T08:38:11.203Z,88.56
2019-03-11T08:39:11.688Z,88.44
2019-03-11T08:40:11.989Z,89.37
2019-03-11T08:41:12.151Z,89.05
2019-03-11T08:42:12.499Z,88.86
2019-03-11T08:43:13.007Z,88.12
2019-03-11T08:44:13.922Z,89.38
2019-03-11T08:45:14.099Z,89.16
2019-03-11T08:46:14.656Z,89.24
2019-03-11T08:47:15.072Z,89.54
2019-03-11T08:48:15.046Z,89.34
2019-03-11T08:49:15.267Z,90.25
2019-03-11T08:50:15.368Z,90.09
2019-03-11T08:51:16.981Z,89.41
2019-03-11T08:52:17.524Z,89.20
2019-03-11T08:53:18.133Z,88.31
2019-03-11T08:54:18.216Z,86.26
2019-03-11T08:55:19.085Z,87.25
2019-03-11T08:56:20.038Z,87.28
2019-03-11T08:57:20.755Z,87.15
2019-03-11T08:58:21.545Z,86.89
2019-03-11T08:59:22.524Z,86.34
2019-03-11T09:00:23.338Z,86.47
2019-03-11T09:01:23.870Z,86.46
2019-03-11T09:02:34.555Z,85.06
2019-03-11T09:03:24.420Z,85.59
2019-03-11T09:04:26.209Z,86.38
2019-03-11T09:05:27.044Z,85.32
2019-03-11T09:06:27.741Z,84.70
2019-03-11T09:07:28.551Z,83.33
2019-03-11T09:08:29.402Z,81.79
2019-03-11T09:09:31.615Z,83.49
2019-03-11T09:10:29.409Z,82.52
2019-03-11T09:11:31.129Z,82.62
2019-03-11T09:12:31.971Z,82.82
2019-03-11T09:13:32.640Z,83.07
2019-03-11T09:14:33.555Z,83.64
2019-03-11T09:15:33.677Z,82.97
2019-03-11T09:16:33.867Z,83.86
2019-03-11T09:17:34.815Z,81.40
2019-03-11T09:18:33.802Z,81.34
2019-03-11T09:19:36.745Z,82.51
2019-03-11T09:20:34.789Z,81.86
2019-03-11T09:20:46.857Z,83.02
2019-03-11T09:21:48.457Z,83.12
2019-03-11T09:22:49.240Z,81.63
2019-03-11T09:23:49.347Z,81.78
2019-03-11T09:24:50.146Z,81.93
2019-03-11T09:25:50.303Z,82.28
2019-03-11T09:26:51.001Z,83.12
2019-03-11T09:27:51.677Z,81.75
2019-03-11T09:28:52.571Z,81.53
2019-03-11T09:29:53.323Z,81.69
2019-03-11T09:30:53.406Z,81.52
2019-03-11T09:31:54.290Z,82.32
2019-03-11T09:32:54.252Z,81.54
2019-03-11T09:33:54.201Z,81.66
2019-03-11T09:34:54.500Z,81.87
2019-03-11T09:35:56.466Z,81.14
2019-03-11T09:36:57.321Z,82.88
2019-03-11T09:37:58.159Z,82.81
2019-03-11T09:38:58.023Z,82.52
2019-03-11T09:40:00.566Z,82.97
2019-03-11T09:40:58.574Z,82.66
2019-03-11T09:41:59.477Z,81.74
2019-03-11T09:43:00.036Z,82.97
2019-03-11T09:44:00.885Z,81.32
2019-03-11T09:45:01.914Z,82.51
2019-03-11T09:46:02.648Z,83.34
2019-03-11T09:47:02.826Z,82.24
2019-03-11T09:48:03.575Z,81.54
2019-03-11T09:49:04.595Z,81.69
2019-03-11T09:50:05.633Z,82.11
2019-03-11T09:51:05.682Z,81.81
2019-03-11T09:52:06.462Z,82.56
2019-03-11T09:53:06.765Z,81.85
2019-03-11T09:54:06.905Z,82.76
2019-03-11T09:55:08.687Z,81.15
2019-03-11T09:56:09.817Z,81.79
2019-03-11T09:57:09.124Z,80.62
2019-03-11T09:58:09.847Z,81.48
2019-03-11T09:59:10.540Z,80.71
2019-03-11T10:00:11.540Z,80.71
2019-03-11T10:01:12.582Z,80.40
2019-03-11T10:02:13.031Z,79.58
2019-03-11T10:03:13.153Z,80.83
2019-03-11T10:04:13.328Z,81.36
2019-03-11T10:05:13.456Z,81.38
2019-03-11T10:06:13.687Z,82.26
2019-03-11T10:07:14.708Z,82.37
2019-03-11T10:08:15.633Z,81.32
2019-03-11T10:09:16.399Z,81.53
2019-03-11T10:10:17.400Z,80.58
2019-03-11T10:11:18.232Z,80.62
2019-03-11T10:12:18.163Z,78.74
2019-03-11T10:13:18.875Z,80.45
2019-03-11T10:14:20.547Z,79.91
2019-03-11T10:15:21.490Z,80.57
2019-03-11T10:16:20.826Z,79.77
2019-03-11T10:17:21.403Z,79.71
2019-03-11T10:18:22.371Z,78.85
2019-03-11T10:19:22.969Z,78.93
2019-03-11T10:20:23.483Z,79.46
2019-03-11T10:21:23.817Z,79.23
2019-03-11T10:22:24.613Z,79.84
2019-03-11T10:23:32.117Z,79.28
2019-03-11T10:24:26.411Z,78.65
2019-03-11T10:25:26.484Z,78.70
2019-03-11T10:26:27.533Z,80.08
2019-03-11T10:27:28.435Z,78.59
2019-03-11T10:28:28.447Z,76.55
2019-03-11T10:29:28.687Z,75.89
2019-03-11T10:30:28.928Z,74.57
2019-03-11T10:31:29.624Z,73.32
2019-03-11T10:32:31.435Z,73.68
2019-03-11T10:33:32.181Z,74.78
2019-03-11T10:34:32.279Z,74.04
2019-03-11T10:35:33.073Z,73.44
2019-03-11T10:36:34.021Z,73.51
2019-03-11T10:37:34.182Z,74.25
2019-03-11T10:38:34.181Z,74.18
2019-03-11T10:39:34.620Z,74.19
2019-03-11T10:40:35.349Z,73.83
2019-03-11T10:41:35.922Z,73.83
2019-03-11T10:42:36.886Z,73.71
2019-03-11T10:43:36.768Z,73.50
2019-03-11T10:44:37.547Z,74.04
2019-03-11T10:45:37.582Z,73.99
2019-03-11T10:46:38.216Z,74.11
2019-03-11T10:47:39.237Z,73.79
2019-03-11T10:48:39.998Z,74.29
2019-03-11T10:49:40.423Z,74.28
2019-03-11T10:50:41.205Z,74.74
2019-03-11T10:51:41.961Z,74.77
2019-03-11T10:52:43.909Z,74.05
2019-03-11T10:53:44.214Z,74.68
2019-03-11T10:54:44.001Z,75.60
2019-03-11T10:55:44.249Z,75.38
2019-03-11T10:56:45.206Z,74.55
2019-03-11T10:56:54.409Z,74.13
2019-03-11T10:57:54.609Z,74.21
2019-03-11T10:58:55.155Z,74.38
2019-03-11T10:59:55.650Z,74.78
2019-03-11T11:00:56.386Z,75.71
2019-03-11T11:01:57.205Z,75.08
2019-03-11T11:02:57.816Z,75.32
2019-03-11T11:03:58.641Z,75.84
2019-03-11T11:04:59.517Z,74.29
2019-03-11T11:06:00.245Z,74.32
2019-03-11T11:07:01.048Z,75.37
2019-03-11T11:08:01.826Z,74.66
2019-03-11T11:09:03.068Z,73.91
2019-03-11T11:10:03.411Z,72.91
2019-03-11T11:11:03.793Z,73.56
2019-03-11T11:12:04.695Z,73.43
2019-03-11T11:13:05.332Z,74.15
2019-03-11T11:14:06.238Z,73.59
2019-03-11T11:15:06.774Z,73.03
2019-03-11T11:16:08.415Z,74.20
2019-03-11T11:17:09.186Z,74.13
2019-03-11T11:18:09.286Z,72.98
2019-03-11T11:19:09.541Z,74.04
2019-03-11T11:20:10.385Z,73.07
2019-03-11T11:21:10.148Z,73.57
2019-03-11T11:22:10.468Z,73.62
2019-03-11T11:23:10.637Z,73.45
2019-03-11T11:24:10.977Z,73.09
2019-03-11T11:25:11.849Z,73.16
2019-03-11T11:26:12.700Z,72.38
2019-03-11T11:27:12.966Z,72.79
2019-03-11T11:28:13.180Z,72.52
2019-03-11T11:29:13.463Z,72.50
2019-03-11T11:30:14.399Z,72.10
2019-03-11T11:31:15.486Z,72.18
2019-03-11T11:32:15.572Z,71.60
2019-03-11T11:33:15.830Z,72.89
2019-03-11T11:34:16.116Z,71.87
2019-03-11T11:35:16.446Z,72.51
2019-03-11T11:36:17.775Z,72.45
2019-03-11T11:37:18.593Z,71.91
2019-03-11T11:38:18.584Z,71.72
2019-03-11T11:39:19.363Z,72.40
2019-03-11T11:40:19.678Z,72.66
2019-03-11T11:41:20.100Z,72.01
2019-03-11T11:42:19.982Z,72.35
2019-03-11T11:43:20.372Z,72.55
2019-03-11T11:44:21.192Z,72.53
2019-03-11T11:45:21.293Z,72.33
2019-03-11T11:46:21.505Z,72.30
2019-03-11T11:47:22.077Z,71.68
2019-03-11T11:48:22.055Z,70.96
2019-03-11T11:49:23.005Z,70.39
2019-03-11T11:50:23.066Z,71.43
2019-03-11T11:51:23.541Z,71.38
2019-03-11T11:52:24.137Z,71.75
2019-03-11T11:53:25.428Z,72.18
2019-03-11T11:54:25.103Z,72.00
2019-03-11T11:55:25.200Z,71.66
2019-03-11T11:56:26.962Z,70.24
2019-03-11T11:57:27.987Z,70.48
2019-03-11T11:58:27.360Z,70.33
2019-03-11T11:59:28.159Z,70.72
2019-03-11T12:00:28.771Z,70.09
2019-03-11T12:01:29.713Z,70.73
2019-03-11T12:02:30.622Z,71.61
2019-03-11T12:03:31.317Z,71.60
2019-03-11T12:04:32.029Z,71.89
2019-03-11T12:05:32.128Z,70.84
2019-03-11T12:06:32.876Z,71.05
2019-03-11T12:07:34.124Z,72.00
2019-03-11T12:08:34.001Z,71.83
2019-03-11T12:09:34.224Z,69.71
2019-03-11T12:10:34.733Z,70.20
2019-03-11T12:11:35.119Z,70.95
2019-03-11T12:12:37.014Z,71.37
2019-03-11T12:13:37.819Z,70.60
2019-03-11T12:14:38.040Z,70.64
2019-03-11T12:15:38.051Z,70.12
2019-03-11T12:16:38.610Z,70.77
2019-03-11T12:17:39.529Z,70.53
2019-03-11T12:18:40.426Z,70.68
2019-03-11T12:19:40.977Z,71.54
2019-03-11T12:20:41.766Z,70.96
2019-03-11T12:21:42.534Z,70.15
2019-03-11T12:22:43.294Z,70.33
2019-03-11T12:23:46.641Z,70.28
2019-03-11T12:24:43.408Z,71.57
2019-03-11T12:25:45.346Z,70.72
2019-03-11T12:26:46.222Z,71.81
2019-03-11T12:27:53.844Z,71.12
2019-03-11T12:28:45.910Z,71.59
2019-03-11T12:29:47.481Z,70.48
2019-03-11T12:30:48.054Z,70.60
2019-03-11T12:31:48.150Z,70.28
2019-03-11T12:32:48.978Z,69.79
2019-03-11T12:33:49.993Z,69.54
2019-03-11T12:34:50.615Z,68.53
2019-03-11T12:34:59.167Z,68.12
2019-03-11T12:36:00.974Z,67.84
2019-03-11T12:37:01.601Z,67.67
2019-03-11T12:38:02.335Z,68.52
2019-03-11T12:39:03.137Z,67.71
2019-03-11T12:40:02.396Z,68.71
2019-03-11T12:41:03.407Z,67.78
2019-03-11T12:42:04.344Z,66.78
2019-03-11T12:43:05.176Z,66.82
2019-03-11T12:44:05.667Z,66.25
2019-03-11T12:45:06.513Z,66.91
2019-03-11T12:46:08.434Z,68.44
2019-03-11T12:47:08.021Z,67.33
2019-03-11T12:48:08.859Z,67.50
2019-03-11T12:49:08.731Z,68.91
2019-03-11T12:50:08.984Z,69.72